sensor_id;sensor_type;location;lat;lon;timestamp;temperature;humidity
25616;DHT22;13482;48.234;13.006;2023-03-01T00:01:40;4.70;60.50
25616;DHT22;13482;48.234;13.006;2023-03-01T00:04:07;4.60;60.50
25616;DHT22;13482;48.234;13.006;2023-03-01T00:06:34;4.60;60.60
25616;DHT22;13482;48.234;13.006;2023-03-01T00:09:01;4.50;60.60
25616;DHT22;13482;48.234;13.006;2023-03-01T00:11:30;4.50;60.70
25616;DHT22;13482;48.234;13.006;2023-03-01T00:14:00;4.40;60.70
25616;DHT22;13482;48.234;13.006;2023-03-01T00:16:31;4.30;60.70
25616;DHT22;13482;48.234;13.006;2023-03-01T00:19:02;4.30;60.90
25616;DHT22;13482;48.234;13.006;2023-03-01T00:21:29;4.20;60.90
25616;DHT22;13482;48.234;13.006;2023-03-01T00:23:57;4.20;61.00
25616;DHT22;13482;48.234;13.006;2023-03-01T00:26:25;4.10;61.10
25616;DHT22;13482;48.234;13.006;2023-03-01T00:28:54;4.10;61.10
25616;DHT22;13482;48.234;13.006;2023-03-01T00:31:29;4.00;61.20
25616;DHT22;13482;48.234;13.006;2023-03-01T00:34:00;4.00;61.20
25616;DHT22;13482;48.234;13.006;2023-03-01T00:36:32;4.00;61.20
25616;DHT22;13482;48.234;13.006;2023-03-01T00:39:01;3.90;61.20
25616;DHT22;13482;48.234;13.006;2023-03-01T00:41:29;3.90;61.30
25616;DHT22;13482;48.234;13.006;2023-03-01T00:43:57;3.80;61.30
25616;DHT22;13482;48.234;13.006;2023-03-01T00:46:26;3.80;61.30
25616;DHT22;13482;48.234;13.006;2023-03-01T00:48:54;3.70;61.40
25616;DHT22;13482;48.234;13.006;2023-03-01T00:51:26;3.70;61.50
25616;DHT22;13482;48.234;13.006;2023-03-01T00:53:58;3.70;61.60
25616;DHT22;13482;48.234;13.006;2023-03-01T00:56:27;3.60;61.60
25616;DHT22;13482;48.234;13.006;2023-03-01T00:58:55;3.60;61.60
25616;DHT22;13482;48.234;13.006;2023-03-01T01:01:25;3.60;61.60
25616;DHT22;13482;48.234;13.006;2023-03-01T01:03:57;3.50;61.60
25616;DHT22;13482;48.234;13.006;2023-03-01T01:06:33;3.50;61.60
25616;DHT22;13482;48.234;13.006;2023-03-01T01:09:03;3.50;61.60
25616;DHT22;13482;48.234;13.006;2023-03-01T01:11:33;3.40;61.70
25616;DHT22;13482;48.234;13.006;2023-03-01T01:14:02;3.40;61.70
25616;DHT22;13482;48.234;13.006;2023-03-01T01:16:29;3.40;61.70
25616;DHT22;13482;48.234;13.006;2023-03-01T01:18:57;3.30;61.70
25616;DHT22;13482;48.234;13.006;2023-03-01T01:21:26;3.30;61.70
25616;DHT22;13482;48.234;13.006;2023-03-01T01:23:54;3.30;61.70
25616;DHT22;13482;48.234;13.006;2023-03-01T01:26:27;3.30;61.70
25616;DHT22;13482;48.234;13.006;2023-03-01T01:28:57;3.30;61.70
25616;DHT22;13482;48.234;13.006;2023-03-01T01:31:25;3.20;61.70
25616;DHT22;13482;48.234;13.006;2023-03-01T01:33:55;3.20;61.80
25616;DHT22;13482;48.234;13.006;2023-03-01T01:36:23;3.20;61.80
25616;DHT22;13482;48.234;13.006;2023-03-01T01:38:52;3.10;61.80
25616;DHT22;13482;48.234;13.006;2023-03-01T01:41:20;3.10;61.80
25616;DHT22;13482;48.234;13.006;2023-03-01T01:46:54;3.00;62.20
25616;DHT22;13482;48.234;13.006;2023-03-01T01:49:35;3.00;61.80
25616;DHT22;13482;48.234;13.006;2023-03-01T01:54:46;3.00;61.80
25616;DHT22;13482;48.234;13.006;2023-03-01T01:57:25;2.90;61.80
25616;DHT22;13482;48.234;13.006;2023-03-01T02:00:19;2.90;62.00
25616;DHT22;13482;48.234;13.006;2023-03-01T02:02:51;2.80;62.00
25616;DHT22;13482;48.234;13.006;2023-03-01T02:05:32;2.80;62.00
25616;DHT22;13482;48.234;13.006;2023-03-01T02:08:02;2.80;62.10
25616;DHT22;13482;48.234;13.006;2023-03-01T02:10:29;2.70;62.10
25616;DHT22;13482;48.234;13.006;2023-03-01T02:13:00;2.70;62.10
25616;DHT22;13482;48.234;13.006;2023-03-01T02:15:35;2.70;62.20
25616;DHT22;13482;48.234;13.006;2023-03-01T02:18:07;2.70;62.20
25616;DHT22;13482;48.234;13.006;2023-03-01T02:23:45;2.60;62.50
25616;DHT22;13482;48.234;13.006;2023-03-01T02:26:21;2.60;62.30
25616;DHT22;13482;48.234;13.006;2023-03-01T02:28:52;2.60;62.40
25616;DHT22;13482;48.234;13.006;2023-03-01T02:31:21;2.60;62.40
25616;DHT22;13482;48.234;13.006;2023-03-01T02:34:17;2.60;62.40
25616;DHT22;13482;48.234;13.006;2023-03-01T02:36:56;2.50;62.40
25616;DHT22;13482;48.234;13.006;2023-03-01T02:39:33;2.50;62.50
25616;DHT22;13482;48.234;13.006;2023-03-01T02:42:04;2.50;62.50
25616;DHT22;13482;48.234;13.006;2023-03-01T02:44:32;2.50;62.60
25616;DHT22;13482;48.234;13.006;2023-03-01T02:47:01;2.50;62.60
25616;DHT22;13482;48.234;13.006;2023-03-01T02:49:35;2.50;62.60
25616;DHT22;13482;48.234;13.006;2023-03-01T02:52:17;2.50;62.70
25616;DHT22;13482;48.234;13.006;2023-03-01T02:57:34;2.40;62.70
25616;DHT22;13482;48.234;13.006;2023-03-01T03:00:08;2.40;62.70
25616;DHT22;13482;48.234;13.006;2023-03-01T03:02:37;2.40;62.70
25616;DHT22;13482;48.234;13.006;2023-03-01T03:05:17;2.40;62.80
25616;DHT22;13482;48.234;13.006;2023-03-01T03:07:48;2.40;62.80
25616;DHT22;13482;48.234;13.006;2023-03-01T03:10:19;2.30;62.70
25616;DHT22;13482;48.234;13.006;2023-03-01T03:12:53;2.40;62.70
25616;DHT22;13482;48.234;13.006;2023-03-01T03:15:25;2.30;62.70
25616;DHT22;13482;48.234;13.006;2023-03-01T03:17:54;2.30;62.70
25616;DHT22;13482;48.234;13.006;2023-03-01T03:20:26;2.30;62.70
25616;DHT22;13482;48.234;13.006;2023-03-01T03:22:56;2.30;62.70
25616;DHT22;13482;48.234;13.006;2023-03-01T03:25:26;2.30;62.70
25616;DHT22;13482;48.234;13.006;2023-03-01T03:27:55;2.20;62.80
25616;DHT22;13482;48.234;13.006;2023-03-01T03:30:28;2.20;62.80
25616;DHT22;13482;48.234;13.006;2023-03-01T03:32:58;2.20;62.80
25616;DHT22;13482;48.234;13.006;2023-03-01T03:35:32;2.20;62.80
25616;DHT22;13482;48.234;13.006;2023-03-01T03:38:03;2.20;62.80
25616;DHT22;13482;48.234;13.006;2023-03-01T03:41:02;2.20;62.80
25616;DHT22;13482;48.234;13.006;2023-03-01T03:43:33;2.20;63.00
25616;DHT22;13482;48.234;13.006;2023-03-01T03:46:01;2.10;62.70
25616;DHT22;13482;48.234;13.006;2023-03-01T03:48:38;2.10;62.70
25616;DHT22;13482;48.234;13.006;2023-03-01T03:51:15;2.10;62.70
25616;DHT22;13482;48.234;13.006;2023-03-01T03:53:44;2.10;62.70
25616;DHT22;13482;48.234;13.006;2023-03-01T03:56:12;2.10;62.80
25616;DHT22;13482;48.234;13.006;2023-03-01T03:58:39;2.00;62.90
25616;DHT22;13482;48.234;13.006;2023-03-01T04:01:06;2.00;62.80
25616;DHT22;13482;48.234;13.006;2023-03-01T04:03:34;2.00;62.80
25616;DHT22;13482;48.234;13.006;2023-03-01T04:06:02;2.00;62.90
25616;DHT22;13482;48.234;13.006;2023-03-01T04:08:30;2.00;62.90
25616;DHT22;13482;48.234;13.006;2023-03-01T04:11:02;2.00;63.00
25616;DHT22;13482;48.234;13.006;2023-03-01T04:13:52;2.00;63.00
25616;DHT22;13482;48.234;13.006;2023-03-01T04:16:21;1.90;63.00
25616;DHT22;13482;48.234;13.006;2023-03-01T04:18:48;1.90;63.00
25616;DHT22;13482;48.234;13.006;2023-03-01T04:21:16;1.90;63.10
25616;DHT22;13482;48.234;13.006;2023-03-01T04:23:43;1.90;63.00
25616;DHT22;13482;48.234;13.006;2023-03-01T04:26:10;1.90;63.10
25616;DHT22;13482;48.234;13.006;2023-03-01T04:28:42;1.90;63.10
25616;DHT22;13482;48.234;13.006;2023-03-01T04:31:15;1.90;63.10
25616;DHT22;13482;48.234;13.006;2023-03-01T04:33:47;1.90;63.00
25616;DHT22;13482;48.234;13.006;2023-03-01T04:36:20;1.80;63.10
25616;DHT22;13482;48.234;13.006;2023-03-01T04:38:52;1.80;63.10
25616;DHT22;13482;48.234;13.006;2023-03-01T04:41:23;1.80;63.10
25616;DHT22;13482;48.234;13.006;2023-03-01T04:43:51;1.80;63.10
25616;DHT22;13482;48.234;13.006;2023-03-01T04:46:20;1.80;63.20
25616;DHT22;13482;48.234;13.006;2023-03-01T04:48:47;1.70;63.30
25616;DHT22;13482;48.234;13.006;2023-03-01T04:51:15;1.70;63.30
25616;DHT22;13482;48.234;13.006;2023-03-01T04:53:43;1.70;63.30
25616;DHT22;13482;48.234;13.006;2023-03-01T04:56:11;1.70;63.30
25616;DHT22;13482;48.234;13.006;2023-03-01T04:58:40;1.70;63.30
25616;DHT22;13482;48.234;13.006;2023-03-01T05:01:10;1.70;63.30
25616;DHT22;13482;48.234;13.006;2023-03-01T05:03:43;1.70;63.30
25616;DHT22;13482;48.234;13.006;2023-03-01T05:06:11;1.70;63.30
25616;DHT22;13482;48.234;13.006;2023-03-01T05:08:39;1.60;63.30
25616;DHT22;13482;48.234;13.006;2023-03-01T05:11:07;1.60;63.30
25616;DHT22;13482;48.234;13.006;2023-03-01T05:13:37;1.60;63.30
25616;DHT22;13482;48.234;13.006;2023-03-01T05:16:06;1.60;63.40
25616;DHT22;13482;48.234;13.006;2023-03-01T05:18:39;1.60;63.30
25616;DHT22;13482;48.234;13.006;2023-03-01T05:21:10;1.60;63.40
25616;DHT22;13482;48.234;13.006;2023-03-01T05:23:38;1.60;63.40
25616;DHT22;13482;48.234;13.006;2023-03-01T05:26:06;1.60;63.90
25616;DHT22;13482;48.234;13.006;2023-03-01T05:28:47;1.60;63.10
25616;DHT22;13482;48.234;13.006;2023-03-01T05:31:15;1.50;63.30
25616;DHT22;13482;48.234;13.006;2023-03-01T05:33:42;1.50;63.30
25616;DHT22;13482;48.234;13.006;2023-03-01T05:36:10;1.50;63.30
25616;DHT22;13482;48.234;13.006;2023-03-01T05:38:37;1.50;63.40
25616;DHT22;13482;48.234;13.006;2023-03-01T05:41:04;1.40;63.50
25616;DHT22;13482;48.234;13.006;2023-03-01T05:43:32;1.40;63.50
25616;DHT22;13482;48.234;13.006;2023-03-01T05:46:01;1.40;63.50
25616;DHT22;13482;48.234;13.006;2023-03-01T05:48:29;1.40;63.60
25616;DHT22;13482;48.234;13.006;2023-03-01T05:50:59;1.40;63.60
25616;DHT22;13482;48.234;13.006;2023-03-01T05:53:27;1.40;63.60
25616;DHT22;13482;48.234;13.006;2023-03-01T05:55:54;1.40;63.70
25616;DHT22;13482;48.234;13.006;2023-03-01T05:58:21;1.40;63.70
25616;DHT22;13482;48.234;13.006;2023-03-01T06:00:49;1.40;63.70
25616;DHT22;13482;48.234;13.006;2023-03-01T06:03:18;1.40;63.80
25616;DHT22;13482;48.234;13.006;2023-03-01T06:05:45;1.40;63.80
25616;DHT22;13482;48.234;13.006;2023-03-01T06:08:13;1.40;63.90
25616;DHT22;13482;48.234;13.006;2023-03-01T06:10:40;1.40;63.90
25616;DHT22;13482;48.234;13.006;2023-03-01T06:13:07;1.40;63.90
25616;DHT22;13482;48.234;13.006;2023-03-01T06:15:35;1.40;64.00
25616;DHT22;13482;48.234;13.006;2023-03-01T06:18:02;1.40;64.00
25616;DHT22;13482;48.234;13.006;2023-03-01T06:20:29;1.40;64.00
25616;DHT22;13482;48.234;13.006;2023-03-01T06:22:56;1.50;64.10
25616;DHT22;13482;48.234;13.006;2023-03-01T06:25:26;1.50;64.10
25616;DHT22;13482;48.234;13.006;2023-03-01T06:27:53;1.50;64.20
25616;DHT22;13482;48.234;13.006;2023-03-01T06:30:23;1.50;64.20
25616;DHT22;13482;48.234;13.006;2023-03-01T06:32:52;1.60;64.30
25616;DHT22;13482;48.234;13.006;2023-03-01T06:35:20;1.60;64.40
25616;DHT22;13482;48.234;13.006;2023-03-01T06:37:48;1.60;64.30
25616;DHT22;13482;48.234;13.006;2023-03-01T06:40:16;1.70;64.40
25616;DHT22;13482;48.234;13.006;2023-03-01T06:42:48;1.70;64.40
25616;DHT22;13482;48.234;13.006;2023-03-01T06:45:17;1.80;64.40
25616;DHT22;13482;48.234;13.006;2023-03-01T06:47:45;1.80;64.50
25616;DHT22;13482;48.234;13.006;2023-03-01T06:50:13;1.90;64.50
25616;DHT22;13482;48.234;13.006;2023-03-01T06:52:44;1.90;64.50
25616;DHT22;13482;48.234;13.006;2023-03-01T06:55:12;2.00;64.60
25616;DHT22;13482;48.234;13.006;2023-03-01T06:57:40;2.10;64.70
25616;DHT22;13482;48.234;13.006;2023-03-01T07:00:08;2.10;64.70
25616;DHT22;13482;48.234;13.006;2023-03-01T07:02:35;2.20;64.70
25616;DHT22;13482;48.234;13.006;2023-03-01T07:05:03;2.30;64.70
25616;DHT22;13482;48.234;13.006;2023-03-01T07:07:30;2.40;64.80
25616;DHT22;13482;48.234;13.006;2023-03-01T07:09:57;2.50;64.80
25616;DHT22;13482;48.234;13.006;2023-03-01T07:12:25;2.60;64.80
25616;DHT22;13482;48.234;13.006;2023-03-01T07:14:52;2.70;64.90
25616;DHT22;13482;48.234;13.006;2023-03-01T07:17:19;2.80;64.90
25616;DHT22;13482;48.234;13.006;2023-03-01T07:19:46;2.90;64.90
25616;DHT22;13482;48.234;13.006;2023-03-01T07:22:14;3.00;64.90
25616;DHT22;13482;48.234;13.006;2023-03-01T07:24:42;3.10;64.80
25616;DHT22;13482;48.234;13.006;2023-03-01T07:27:10;3.20;64.80
25616;DHT22;13482;48.234;13.006;2023-03-01T07:29:37;3.30;64.80
25616;DHT22;13482;48.234;13.006;2023-03-01T07:32:05;3.40;64.80
25616;DHT22;13482;48.234;13.006;2023-03-01T07:34:33;3.60;64.70
25616;DHT22;13482;48.234;13.006;2023-03-01T07:37:00;3.70;64.70
25616;DHT22;13482;48.234;13.006;2023-03-01T07:39:27;3.80;64.50
25616;DHT22;13482;48.234;13.006;2023-03-01T07:41:54;3.90;64.40
25616;DHT22;13482;48.234;13.006;2023-03-01T07:44:21;4.00;64.40
25616;DHT22;13482;48.234;13.006;2023-03-01T07:46:48;4.10;64.40
25616;DHT22;13482;48.234;13.006;2023-03-01T07:49:16;4.20;64.30
25616;DHT22;13482;48.234;13.006;2023-03-01T07:51:43;4.30;64.40
25616;DHT22;13482;48.234;13.006;2023-03-01T07:54:10;4.50;64.30
25616;DHT22;13482;48.234;13.006;2023-03-01T07:56:37;4.60;64.30
25616;DHT22;13482;48.234;13.006;2023-03-01T07:59:04;4.70;64.20
25616;DHT22;13482;48.234;13.006;2023-03-01T08:01:31;4.90;64.20
25616;DHT22;13482;48.234;13.006;2023-03-01T08:03:59;5.00;64.20
25616;DHT22;13482;48.234;13.006;2023-03-01T08:06:26;5.10;64.10
25616;DHT22;13482;48.234;13.006;2023-03-01T08:08:53;5.20;63.90
25616;DHT22;13482;48.234;13.006;2023-03-01T08:11:23;5.30;63.80
25616;DHT22;13482;48.234;13.006;2023-03-01T08:13:50;5.40;63.80
25616;DHT22;13482;48.234;13.006;2023-03-01T08:16:19;5.60;63.80
25616;DHT22;13482;48.234;13.006;2023-03-01T08:18:46;5.70;63.70
25616;DHT22;13482;48.234;13.006;2023-03-01T08:21:16;5.80;63.60
25616;DHT22;13482;48.234;13.006;2023-03-01T08:23:44;5.90;63.40
25616;DHT22;13482;48.234;13.006;2023-03-01T08:26:15;6.00;63.30
25616;DHT22;13482;48.234;13.006;2023-03-01T08:28:46;6.10;63.30
25616;DHT22;13482;48.234;13.006;2023-03-01T08:31:24;6.20;63.30
25616;DHT22;13482;48.234;13.006;2023-03-01T08:33:55;6.30;63.20
25616;DHT22;13482;48.234;13.006;2023-03-01T08:36:25;6.50;63.20
25616;DHT22;13482;48.234;13.006;2023-03-01T08:38:55;6.60;63.10
25616;DHT22;13482;48.234;13.006;2023-03-01T08:41:22;6.70;62.90
25616;DHT22;13482;48.234;13.006;2023-03-01T08:43:50;6.80;62.80
25616;DHT22;13482;48.234;13.006;2023-03-01T08:46:17;6.90;62.70
25616;DHT22;13482;48.234;13.006;2023-03-01T08:48:45;7.00;62.60
25616;DHT22;13482;48.234;13.006;2023-03-01T08:51:17;7.00;62.40
25616;DHT22;13482;48.234;13.006;2023-03-01T08:53:48;7.10;62.30
25616;DHT22;13482;48.234;13.006;2023-03-01T08:56:16;7.20;62.30
25616;DHT22;13482;48.234;13.006;2023-03-01T08:58:48;7.30;62.30
25616;DHT22;13482;48.234;13.006;2023-03-01T09:01:18;7.40;62.10
25616;DHT22;13482;48.234;13.006;2023-03-01T09:03:46;7.50;62.10
25616;DHT22;13482;48.234;13.006;2023-03-01T09:06:14;7.50;62.10
25616;DHT22;13482;48.234;13.006;2023-03-01T09:08:44;7.60;62.10
25616;DHT22;13482;48.234;13.006;2023-03-01T09:11:15;7.70;62.00
25616;DHT22;13482;48.234;13.006;2023-03-01T09:13:45;7.80;62.00
25616;DHT22;13482;48.234;13.006;2023-03-01T09:16:14;7.90;61.50
25616;DHT22;13482;48.234;13.006;2023-03-01T09:18:44;8.00;61.80
25616;DHT22;13482;48.234;13.006;2023-03-01T09:21:14;8.10;61.80
25616;DHT22;13482;48.234;13.006;2023-03-01T09:23:46;8.20;62.00
25616;DHT22;13482;48.234;13.006;2023-03-01T09:26:19;8.30;61.80
25616;DHT22;13482;48.234;13.006;2023-03-01T09:28:53;8.40;61.50
25616;DHT22;13482;48.234;13.006;2023-03-01T09:31:23;8.50;61.40
25616;DHT22;13482;48.234;13.006;2023-03-01T09:33:52;8.50;61.40
25616;DHT22;13482;48.234;13.006;2023-03-01T09:36:23;8.60;61.20
25616;DHT22;13482;48.234;13.006;2023-03-01T09:38:52;8.70;61.20
25616;DHT22;13482;48.234;13.006;2023-03-01T09:47:27;8.80;60.80
25616;DHT22;13482;48.234;13.006;2023-03-01T09:50:15;8.90;60.80
25616;DHT22;13482;48.234;13.006;2023-03-01T09:55:52;9.10;60.10
25616;DHT22;13482;48.234;13.006;2023-03-01T10:07:17;9.40;60.30
25616;DHT22;13482;48.234;13.006;2023-03-01T10:09:54;9.40;60.50
25616;DHT22;13482;48.234;13.006;2023-03-01T10:12:31;9.50;60.60
25616;DHT22;13482;48.234;13.006;2023-03-01T10:15:14;9.60;60.20
25616;DHT22;13482;48.234;13.006;2023-03-01T10:17:55;9.70;60.10
25616;DHT22;13482;48.234;13.006;2023-03-01T10:20:33;9.80;60.20
25616;DHT22;13482;48.234;13.006;2023-03-01T10:23:13;9.90;59.90
25616;DHT22;13482;48.234;13.006;2023-03-01T10:29:07;10.00;59.80
25616;DHT22;13482;48.234;13.006;2023-03-01T10:34:31;10.20;60.00
25616;DHT22;13482;48.234;13.006;2023-03-01T10:37:29;10.20;60.00
25616;DHT22;13482;48.234;13.006;2023-03-01T10:40:07;10.30;59.40
25616;DHT22;13482;48.234;13.006;2023-03-01T10:42:39;10.40;59.90
25616;DHT22;13482;48.234;13.006;2023-03-01T10:45:43;10.50;60.00
25616;DHT22;13482;48.234;13.006;2023-03-01T10:48:21;10.60;59.20
25616;DHT22;13482;48.234;13.006;2023-03-01T10:56:06;10.80;59.70
25616;DHT22;13482;48.234;13.006;2023-03-01T10:59:01;10.90;59.60
25616;DHT22;13482;48.234;13.006;2023-03-01T11:01:35;11.00;59.20
25616;DHT22;13482;48.234;13.006;2023-03-01T11:04:11;11.10;59.70
25616;DHT22;13482;48.234;13.006;2023-03-01T11:06:41;11.20;59.60
25616;DHT22;13482;48.234;13.006;2023-03-01T11:09:21;11.30;59.80
25616;DHT22;13482;48.234;13.006;2023-03-01T11:11:57;11.40;59.40
25616;DHT22;13482;48.234;13.006;2023-03-01T11:14:32;11.40;59.40
25616;DHT22;13482;48.234;13.006;2023-03-01T11:17:12;11.50;59.50
25616;DHT22;13482;48.234;13.006;2023-03-01T11:20:00;11.60;59.40
25616;DHT22;13482;48.234;13.006;2023-03-01T11:22:32;11.70;59.00
25616;DHT22;13482;48.234;13.006;2023-03-01T11:25:00;11.70;59.30
25616;DHT22;13482;48.234;13.006;2023-03-01T11:27:44;11.80;59.40
25616;DHT22;13482;48.234;13.006;2023-03-01T11:30:32;11.90;59.20
25616;DHT22;13482;48.234;13.006;2023-03-01T11:35:39;12.10;59.40
25616;DHT22;13482;48.234;13.006;2023-03-01T11:38:18;12.20;59.20
25616;DHT22;13482;48.234;13.006;2023-03-01T11:41:01;12.30;59.00
25616;DHT22;13482;48.234;13.006;2023-03-01T11:43:49;12.40;59.20
25616;DHT22;13482;48.234;13.006;2023-03-01T11:52:27;12.80;59.00
25616;DHT22;13482;48.234;13.006;2023-03-01T11:55:46;12.90;58.20
25616;DHT22;13482;48.234;13.006;2023-03-01T11:58:45;13.00;58.30
25616;DHT22;13482;48.234;13.006;2023-03-01T12:04:59;13.20;58.50
25616;DHT22;13482;48.234;13.006;2023-03-01T12:13:38;13.40;58.40
25616;DHT22;13482;48.234;13.006;2023-03-01T12:20:11;13.60;57.70
25616;DHT22;13482;48.234;13.006;2023-03-01T12:26:08;13.70;57.60
25616;DHT22;13482;48.234;13.006;2023-03-01T12:34:38;13.90;57.70
25616;DHT22;13482;48.234;13.006;2023-03-01T12:41:02;14.10;57.80
25616;DHT22;13482;48.234;13.006;2023-03-01T12:50:43;14.20;57.10
25616;DHT22;13482;48.234;13.006;2023-03-01T12:53:27;14.20;57.30
25616;DHT22;13482;48.234;13.006;2023-03-01T12:56:02;14.10;57.60
25616;DHT22;13482;48.234;13.006;2023-03-01T13:02:16;14.20;58.00
25616;DHT22;13482;48.234;13.006;2023-03-01T13:05:24;14.30;57.50
25616;DHT22;13482;48.234;13.006;2023-03-01T13:10:43;14.50;58.10
25616;DHT22;13482;48.234;13.006;2023-03-01T13:13:23;14.50;58.10
25616;DHT22;13482;48.234;13.006;2023-03-01T13:15:52;14.60;58.00
25616;DHT22;13482;48.234;13.006;2023-03-01T13:20:56;14.70;57.60
25616;DHT22;13482;48.234;13.006;2023-03-01T13:23:34;14.80;57.20
25616;DHT22;13482;48.234;13.006;2023-03-01T13:33:59;14.90;57.30
25616;DHT22;13482;48.234;13.006;2023-03-01T13:44:30;15.10;56.70
25616;DHT22;13482;48.234;13.006;2023-03-01T13:47:20;15.20;57.00
25616;DHT22;13482;48.234;13.006;2023-03-01T13:52:36;15.20;57.50
25616;DHT22;13482;48.234;13.006;2023-03-01T13:57:49;15.30;56.80
25616;DHT22;13482;48.234;13.006;2023-03-01T14:00:40;15.40;57.00
25616;DHT22;13482;48.234;13.006;2023-03-01T14:03:12;15.40;56.20
25616;DHT22;13482;48.234;13.006;2023-03-01T14:06:05;15.40;56.80
25616;DHT22;13482;48.234;13.006;2023-03-01T14:08:42;15.40;56.90
25616;DHT22;13482;48.234;13.006;2023-03-01T14:14:26;15.50;56.00
25616;DHT22;13482;48.234;13.006;2023-03-01T14:20:01;15.50;56.30
25616;DHT22;13482;48.234;13.006;2023-03-01T14:22:35;15.50;56.70
25616;DHT22;13482;48.234;13.006;2023-03-01T14:25:14;15.50;56.90
25616;DHT22;13482;48.234;13.006;2023-03-01T14:27:58;15.60;56.80
25616;DHT22;13482;48.234;13.006;2023-03-01T14:30:38;15.60;56.70
25616;DHT22;13482;48.234;13.006;2023-03-01T14:33:28;15.70;56.70
25616;DHT22;13482;48.234;13.006;2023-03-01T14:36:08;15.80;56.50
25616;DHT22;13482;48.234;13.006;2023-03-01T14:41:22;15.90;56.70
25616;DHT22;13482;48.234;13.006;2023-03-01T14:43:53;15.90;56.60
25616;DHT22;13482;48.234;13.006;2023-03-01T14:46:38;16.00;56.60
25616;DHT22;13482;48.234;13.006;2023-03-01T14:49:17;16.10;56.20
25616;DHT22;13482;48.234;13.006;2023-03-01T14:54:41;16.30;56.40
25616;DHT22;13482;48.234;13.006;2023-03-01T14:57:36;16.40;56.10
25616;DHT22;13482;48.234;13.006;2023-03-01T15:00:07;16.50;55.50
25616;DHT22;13482;48.234;13.006;2023-03-01T15:02:35;16.60;56.60
25616;DHT22;13482;48.234;13.006;2023-03-01T15:05:04;16.70;56.70
25616;DHT22;13482;48.234;13.006;2023-03-01T15:07:38;16.80;56.70
25616;DHT22;13482;48.234;13.006;2023-03-01T15:10:22;17.00;56.50
25616;DHT22;13482;48.234;13.006;2023-03-01T15:12:51;17.10;55.80
25616;DHT22;13482;48.234;13.006;2023-03-01T15:15:43;17.20;56.50
25616;DHT22;13482;48.234;13.006;2023-03-01T15:18:26;17.40;55.10
25616;DHT22;13482;48.234;13.006;2023-03-01T15:20:55;17.60;55.50
25616;DHT22;13482;48.234;13.006;2023-03-01T15:23:32;17.70;56.40
25616;DHT22;13482;48.234;13.006;2023-03-01T15:26:00;17.90;56.00
25616;DHT22;13482;48.234;13.006;2023-03-01T15:28:34;18.00;55.60
25616;DHT22;13482;48.234;13.006;2023-03-01T15:31:18;18.10;55.00
25616;DHT22;13482;48.234;13.006;2023-03-01T15:33:51;18.30;54.70
25616;DHT22;13482;48.234;13.006;2023-03-01T15:36:46;18.30;55.00
25616;DHT22;13482;48.234;13.006;2023-03-01T15:39:39;18.40;53.20
25616;DHT22;13482;48.234;13.006;2023-03-01T15:42:11;18.50;53.50
25616;DHT22;13482;48.234;13.006;2023-03-01T15:45:11;18.50;54.60
25616;DHT22;13482;48.234;13.006;2023-03-01T15:47:40;18.50;53.80
25616;DHT22;13482;48.234;13.006;2023-03-01T15:50:34;18.50;54.20
25616;DHT22;13482;48.234;13.006;2023-03-01T15:53:10;18.50;52.20
25616;DHT22;13482;48.234;13.006;2023-03-01T15:55:39;18.50;53.80
25616;DHT22;13482;48.234;13.006;2023-03-01T15:58:13;18.40;53.80
25616;DHT22;13482;48.234;13.006;2023-03-01T16:00:44;18.30;53.40
25616;DHT22;13482;48.234;13.006;2023-03-01T16:03:25;18.20;53.40
25616;DHT22;13482;48.234;13.006;2023-03-01T16:05:53;18.10;53.20
25616;DHT22;13482;48.234;13.006;2023-03-01T16:08:20;17.90;53.20
25616;DHT22;13482;48.234;13.006;2023-03-01T16:10:50;17.80;53.10
25616;DHT22;13482;48.234;13.006;2023-03-01T16:13:18;17.60;53.00
25616;DHT22;13482;48.234;13.006;2023-03-01T16:15:46;17.40;52.70
25616;DHT22;13482;48.234;13.006;2023-03-01T16:18:14;17.10;52.50
25616;DHT22;13482;48.234;13.006;2023-03-01T16:20:41;16.80;52.20
25616;DHT22;13482;48.234;13.006;2023-03-01T16:23:10;16.40;52.20
25616;DHT22;13482;48.234;13.006;2023-03-01T16:25:37;16.00;52.20
25616;DHT22;13482;48.234;13.006;2023-03-01T16:28:05;15.60;52.30
25616;DHT22;13482;48.234;13.006;2023-03-01T16:30:37;15.20;52.50
25616;DHT22;13482;48.234;13.006;2023-03-01T16:33:06;14.90;52.70
25616;DHT22;13482;48.234;13.006;2023-03-01T16:35:50;14.50;52.90
25616;DHT22;13482;48.234;13.006;2023-03-01T16:38:18;14.20;53.10
25616;DHT22;13482;48.234;13.006;2023-03-01T16:40:50;13.80;53.40
25616;DHT22;13482;48.234;13.006;2023-03-01T16:43:18;13.60;53.60
25616;DHT22;13482;48.234;13.006;2023-03-01T16:45:45;13.30;53.80
25616;DHT22;13482;48.234;13.006;2023-03-01T16:48:13;13.10;53.90
25616;DHT22;13482;48.234;13.006;2023-03-01T16:50:41;12.90;54.10
25616;DHT22;13482;48.234;13.006;2023-03-01T16:53:08;12.70;54.30
25616;DHT22;13482;48.234;13.006;2023-03-01T16:55:36;12.50;54.40
25616;DHT22;13482;48.234;13.006;2023-03-01T16:58:04;12.30;54.70
25616;DHT22;13482;48.234;13.006;2023-03-01T17:00:32;12.10;54.80
25616;DHT22;13482;48.234;13.006;2023-03-01T17:02:59;11.90;54.90
25616;DHT22;13482;48.234;13.006;2023-03-01T17:05:27;11.80;55.00
25616;DHT22;13482;48.234;13.006;2023-03-01T17:07:54;11.60;55.10
25616;DHT22;13482;48.234;13.006;2023-03-01T17:10:22;11.40;55.40
25616;DHT22;13482;48.234;13.006;2023-03-01T17:12:49;11.30;55.50
25616;DHT22;13482;48.234;13.006;2023-03-01T17:15:17;11.20;55.60
25616;DHT22;13482;48.234;13.006;2023-03-01T17:17:44;11.00;55.70
25616;DHT22;13482;48.234;13.006;2023-03-01T17:20:11;10.90;55.90
25616;DHT22;13482;48.234;13.006;2023-03-01T17:22:39;10.80;56.10
25616;DHT22;13482;48.234;13.006;2023-03-01T17:25:08;10.70;56.20
25616;DHT22;13482;48.234;13.006;2023-03-01T17:27:37;10.60;56.30
25616;DHT22;13482;48.234;13.006;2023-03-01T17:30:06;10.50;56.40
25616;DHT22;13482;48.234;13.006;2023-03-01T17:32:37;10.40;56.50
25616;DHT22;13482;48.234;13.006;2023-03-01T17:35:04;10.30;56.60
25616;DHT22;13482;48.234;13.006;2023-03-01T17:37:33;10.20;56.70
25616;DHT22;13482;48.234;13.006;2023-03-01T17:40:01;10.10;56.90
25616;DHT22;13482;48.234;13.006;2023-03-01T17:42:28;10.10;57.00
25616;DHT22;13482;48.234;13.006;2023-03-01T17:44:56;10.00;57.00
25616;DHT22;13482;48.234;13.006;2023-03-01T17:47:23;9.90;57.10
25616;DHT22;13482;48.234;13.006;2023-03-01T17:49:51;9.90;57.20
25616;DHT22;13482;48.234;13.006;2023-03-01T17:52:18;9.80;57.20
25616;DHT22;13482;48.234;13.006;2023-03-01T17:54:49;9.70;57.30
25616;DHT22;13482;48.234;13.006;2023-03-01T17:57:16;9.70;57.40
25616;DHT22;13482;48.234;13.006;2023-03-01T17:59:43;9.60;57.50
25616;DHT22;13482;48.234;13.006;2023-03-01T18:02:14;9.60;57.50